createdAt,value
2018-09-23T00:00:45.615Z,77.15
2018-09-23T00:01:45.647Z,77.74
2018-09-23T00:02:45.838Z,77.64
2018-09-23T00:03:45.560Z,77.13
2018-09-23T00:04:45.521Z,77.75
2018-09-23T00:05:45.594Z,77.43
2018-09-23T00:06:45.581Z,77.27
2018-09-23T00:07:45.598Z,78.11
2018-09-23T00:08:45.739Z,77.93
2018-09-23T00:09:45.631Z,78.04
2018-09-23T00:10:45.527Z,77.53
2018-09-23T00:11:45.769Z,77.11
2018-09-23T00:12:45.531Z,77.74
2018-09-23T00:13:45.682Z,77.59
2018-09-23T00:14:45.678Z,77.4
2018-09-23T00:15:45.553Z,77.59
2018-09-23T00:16:45.543Z,77.86
2018-09-23T00:17:45.543Z,78.56
2018-09-23T00:18:45.633Z,77.71
2018-09-23T00:19:45.787Z,77
2018-09-23T00:20:45.505Z,77.38
2018-09-23T00:21:45.759Z,77.13
2018-09-23T00:22:45.777Z,77.63
2018-09-23T00:23:45.518Z,77.27
2018-09-23T00:24:45.517Z,77.37
2018-09-23T00:25:45.627Z,77.26
2018-09-23T00:26:45.541Z,77.73
2018-09-23T00:27:45.615Z,77.65
2018-09-23T00:28:45.587Z,77.45
2018-09-23T00:29:45.610Z,77.78
2018-09-23T00:30:45.519Z,77.81
2018-09-23T00:31:45.564Z,77.45
2018-09-23T00:32:45.555Z,78.19
2018-09-23T00:33:45.488Z,78.36
2018-09-23T00:34:45.502Z,79
2018-09-23T00:35:45.511Z,78.96
2018-09-23T00:36:45.499Z,79.49
2018-09-23T00:37:45.662Z,79.19
2018-09-23T00:38:45.481Z,79.46
2018-09-23T00:39:45.579Z,78.9
2018-09-23T00:40:45.483Z,78.59
2018-09-23T00:41:45.485Z,78.51
2018-09-23T00:42:45.492Z,80.11
2018-09-23T00:43:45.508Z,79.87
2018-09-23T00:44:45.471Z,79.89
2018-09-23T00:45:45.523Z,80.52
2018-09-23T00:46:45.469Z,80.13
2018-09-23T00:47:45.466Z,79.86
2018-09-23T00:48:45.466Z,80.57
2018-09-23T00:49:45.466Z,80.67
2018-09-23T00:50:45.502Z,80.91
2018-09-23T00:51:45.466Z,81.52
2018-09-23T00:52:45.493Z,81.45
2018-09-23T00:53:45.600Z,81.28
2018-09-23T00:54:45.583Z,80.91
2018-09-23T00:55:45.880Z,80.54
2018-09-23T00:56:45.510Z,80.18
2018-09-23T00:57:45.555Z,80.28
2018-09-23T00:58:45.469Z,80.23
2018-09-23T00:59:45.459Z,80.34
2018-09-23T01:00:45.637Z,82.66
2018-09-23T01:01:45.474Z,83.02
2018-09-23T01:02:45.453Z,82.07
2018-09-23T01:03:45.543Z,81.52
2018-09-23T01:04:45.481Z,81.29
2018-09-23T01:05:45.682Z,81.59
2018-09-23T01:06:45.457Z,83.25
2018-09-23T01:07:45.575Z,83.08
2018-09-23T01:08:45.482Z,82.63
2018-09-23T01:09:45.631Z,82.74
2018-09-23T01:10:46.024Z,82.28
2018-09-23T01:11:45.659Z,83.08
2018-09-23T01:12:45.533Z,83.06
2018-09-23T01:13:45.475Z,82.44
2018-09-23T01:14:45.581Z,82.62
2018-09-23T01:15:45.455Z,82.79
2018-09-23T01:16:45.579Z,82.4
2018-09-23T01:17:45.509Z,82.7
2018-09-23T01:18:45.417Z,83.09
2018-09-23T01:19:45.426Z,82.73
2018-09-23T01:20:45.523Z,82.58
2018-09-23T01:21:45.470Z,84.76
2018-09-23T01:22:45.501Z,83.87
2018-09-23T01:23:45.445Z,83.55
2018-09-23T01:24:45.423Z,82.93
2018-09-23T01:25:45.424Z,83.89
2018-09-23T01:26:45.448Z,83.2
2018-09-23T01:27:45.491Z,83.53
2018-09-23T01:28:45.472Z,83.96
2018-09-23T01:29:45.443Z,83.41
2018-09-23T01:30:45.539Z,83.86
2018-09-23T01:31:45.439Z,83.88
2018-09-23T01:32:45.475Z,83.76
2018-09-23T01:33:45.618Z,83.28
2018-09-23T01:34:45.431Z,83.28
2018-09-23T01:35:45.497Z,83.85
2018-09-23T01:36:45.480Z,83.71
2018-09-23T01:37:45.423Z,83.24
2018-09-23T01:38:45.603Z,83.14
2018-09-23T01:39:45.454Z,83.4
2018-09-23T01:40:45.462Z,83.9
2018-09-23T01:41:46.115Z,83.95
2018-09-23T01:42:45.508Z,84.43
2018-09-23T01:43:45.430Z,84.64
2018-09-23T01:44:45.524Z,84.49
2018-09-23T01:45:45.392Z,84.45
2018-09-23T01:46:45.425Z,85
2018-09-23T01:47:45.390Z,84.82
2018-09-23T01:48:46.277Z,84.44
2018-09-23T01:49:45.455Z,84.9
2018-09-23T01:50:45.462Z,84.98
2018-09-23T01:51:45.394Z,84.27
2018-09-23T01:52:45.518Z,84.6
2018-09-23T01:53:45.388Z,84.55
2018-09-23T01:54:45.390Z,84.42
2018-09-23T01:55:45.553Z,85.17
2018-09-23T01:56:45.396Z,85.19
2018-09-23T01:57:45.439Z,84.96
2018-09-23T01:58:45.386Z,84.85
2018-09-23T01:59:45.641Z,84.33
2018-09-23T02:00:45.385Z,84.66
2018-09-23T02:01:45.574Z,84.58
2018-09-23T02:02:45.377Z,84.79
2018-09-23T02:03:45.415Z,84.59
2018-09-23T02:04:45.368Z,84.77
2018-09-23T02:05:45.380Z,84.76
2018-09-23T02:06:45.377Z,84.79
2018-09-23T02:07:45.457Z,84.93
2018-09-23T02:08:45.388Z,84.81
2018-09-23T02:09:45.347Z,84.82
2018-09-23T02:10:45.428Z,84.78
2018-09-23T02:11:45.389Z,85.25
2018-09-23T02:12:45.398Z,85.08
2018-09-23T02:13:45.387Z,84.77
2018-09-23T02:14:45.430Z,85.21
2018-09-23T02:15:45.474Z,85.02
2018-09-23T02:16:45.410Z,84.94
2018-09-23T02:17:45.461Z,85.05
2018-09-23T02:18:45.834Z,84.41
2018-09-23T02:19:45.369Z,84.62
2018-09-23T02:20:45.410Z,84.53
2018-09-23T02:21:45.384Z,84.3
2018-09-23T02:22:45.516Z,84.5
2018-09-23T02:23:45.610Z,84.83
2018-09-23T02:24:45.353Z,84.73
2018-09-23T02:25:45.378Z,84.73
2018-09-23T02:26:45.352Z,84.4
2018-09-23T02:27:45.912Z,85.31
2018-09-23T02:28:46.107Z,84.79
2018-09-23T02:29:45.352Z,84.88
2018-09-23T02:30:45.337Z,84.29
2018-09-23T02:31:45.351Z,84.29
2018-09-23T02:32:45.395Z,85.01
2018-09-23T02:33:45.470Z,84.53
2018-09-23T02:34:45.506Z,84.64
2018-09-23T02:35:45.329Z,84.81
2018-09-23T02:36:45.318Z,85.12
2018-09-23T02:37:45.356Z,84.93
2018-09-23T02:38:45.350Z,84.82
2018-09-23T02:39:45.543Z,84.88
2018-09-23T02:40:45.315Z,84.98
2018-09-23T02:41:45.351Z,85.16
2018-09-23T02:42:45.492Z,84.77
2018-09-23T02:43:45.344Z,85.14
2018-09-23T02:44:45.370Z,84.81
2018-09-23T02:45:45.379Z,84.85
2018-09-23T02:46:45.372Z,84.96
2018-09-23T02:47:45.464Z,84.55
2018-09-23T02:48:45.286Z,85.38
2018-09-23T02:49:45.338Z,85.82
2018-09-23T02:50:45.455Z,85.51
2018-09-23T02:51:45.312Z,85.57
2018-09-23T02:52:45.349Z,85.57
2018-09-23T02:53:45.411Z,85.76
2018-09-23T02:54:45.409Z,85.84
2018-09-23T02:55:45.294Z,85.87
2018-09-23T02:56:45.341Z,86.07
2018-09-23T02:57:45.332Z,86.1
2018-09-23T02:58:45.467Z,86.03
2018-09-23T02:59:45.500Z,85.85
2018-09-23T03:00:45.370Z,86.09
2018-09-23T03:01:45.293Z,85.95
2018-09-23T03:02:45.552Z,85.91
2018-09-23T03:03:45.312Z,85.53
2018-09-23T03:04:45.680Z,85.76
2018-09-23T03:05:45.675Z,86.1
2018-09-23T03:06:45.284Z,86.3
2018-09-23T03:07:45.905Z,86.05
2018-09-23T03:08:45.430Z,85.74
2018-09-23T03:09:45.302Z,86.33
2018-09-23T03:10:45.322Z,86.27
2018-09-23T03:11:45.311Z,86.28
2018-09-23T03:12:45.438Z,86
2018-09-23T03:13:45.439Z,86.33
2018-09-23T03:14:45.275Z,86.22
2018-09-23T03:15:45.274Z,86.58
2018-09-23T03:16:45.259Z,86.49
2018-09-23T03:17:45.339Z,86.76
2018-09-23T03:18:45.301Z,86.9
2018-09-23T03:19:45.262Z,86.67
2018-09-23T03:20:45.287Z,86.92
2018-09-23T03:21:45.300Z,86.76
2018-09-23T03:22:45.302Z,86.61
2018-09-23T03:23:45.328Z,86.13
2018-09-23T03:24:45.309Z,86.97
2018-09-23T03:25:45.315Z,86.85
2018-09-23T03:26:45.332Z,87.01
2018-09-23T03:27:45.308Z,87.07
2018-09-23T03:28:45.273Z,87.28
2018-09-23T03:29:45.282Z,86.87
2018-09-23T03:30:45.304Z,87.05
2018-09-23T03:31:45.266Z,87.09
2018-09-23T03:32:45.262Z,87.15
2018-09-23T03:33:45.239Z,86.82
2018-09-23T03:34:45.279Z,87.05
2018-09-23T03:35:45.298Z,87.19
2018-09-23T03:36:45.266Z,87.19
2018-09-23T03:37:45.415Z,87.19
2018-09-23T03:38:45.246Z,86.98
2018-09-23T03:39:45.456Z,86.71
2018-09-23T03:40:45.285Z,86.51
2018-09-23T03:41:45.297Z,86.74
2018-09-23T03:42:45.640Z,87.14
2018-09-23T03:43:45.496Z,87.16
2018-09-23T03:44:45.257Z,87.33
2018-09-23T03:45:45.308Z,87.14
2018-09-23T03:46:45.261Z,87.21
2018-09-23T03:47:45.321Z,87.31
2018-09-23T03:48:45.374Z,87.03
2018-09-23T03:49:45.247Z,86.59
2018-09-23T03:50:45.402Z,86.88
2018-09-23T03:51:45.256Z,87.13
2018-09-23T03:52:45.314Z,87.13
2018-09-23T03:53:46.604Z,86.98
2018-09-23T03:54:45.271Z,87.48
2018-09-23T03:55:45.266Z,87.35
2018-09-23T03:56:45.260Z,87.76
2018-09-23T03:57:45.247Z,87.5
2018-09-23T03:58:45.359Z,87.69
2018-09-23T03:59:45.270Z,87.26
2018-09-23T04:00:45.268Z,87.61
2018-09-23T04:01:45.226Z,87.49
2018-09-23T04:02:45.217Z,87.6
2018-09-23T04:03:45.285Z,87.58
2018-09-23T04:04:45.251Z,87.53
2018-09-23T04:05:45.336Z,87.62
2018-09-23T04:06:45.379Z,87.34
2018-09-23T04:07:45.302Z,87.33
2018-09-23T04:08:45.699Z,87.79
2018-09-23T04:09:45.232Z,87.38
2018-09-23T04:10:45.246Z,87.52
2018-09-23T04:11:45.424Z,87.62
2018-09-23T04:12:45.388Z,87.2
2018-09-23T04:13:45.428Z,87.35
2018-09-23T04:14:45.230Z,87.52
2018-09-23T04:15:45.215Z,87.51
2018-09-23T04:16:45.199Z,87.64
2018-09-23T04:17:45.210Z,87.55
2018-09-23T04:18:45.384Z,87.41
2018-09-23T04:19:45.201Z,87.74
2018-09-23T04:20:45.248Z,87.59
2018-09-23T04:21:45.218Z,87.76
2018-09-23T04:22:45.285Z,88.15
2018-09-23T04:23:45.299Z,87.93
2018-09-23T04:24:45.267Z,87.9
2018-09-23T04:25:45.933Z,87.86
2018-09-23T04:26:45.326Z,87.63
2018-09-23T04:27:45.314Z,87.8
2018-09-23T04:28:45.249Z,87.8
2018-09-23T04:29:45.272Z,87.92
2018-09-23T04:30:45.174Z,87.99
2018-09-23T04:31:45.426Z,87.83
2018-09-23T04:32:45.453Z,87.85
2018-09-23T04:33:45.257Z,87.84
2018-09-23T04:34:45.496Z,87.85
2018-09-23T04:35:45.256Z,88
2018-09-23T04:36:45.209Z,88.42
2018-09-23T04:37:45.189Z,88.02
2018-09-23T04:38:45.345Z,88.31
2018-09-23T04:39:45.206Z,88.07
2018-09-23T04:40:45.184Z,88.01
2018-09-23T04:41:45.461Z,88
2018-09-23T04:42:45.179Z,88.13
2018-09-23T04:43:45.153Z,88.49
2018-09-23T04:44:45.358Z,88.12
2018-09-23T04:45:45.198Z,88.06
2018-09-23T04:46:45.207Z,88.33
2018-09-23T04:47:45.149Z,88.08
2018-09-23T04:48:45.141Z,88.55
2018-09-23T04:49:45.174Z,88.35
2018-09-23T04:50:45.171Z,88.29
2018-09-23T04:51:45.141Z,88.29
2018-09-23T04:52:45.197Z,88.18
2018-09-23T04:53:45.332Z,88.19
2018-09-23T04:54:45.174Z,88.06
2018-09-23T04:55:45.181Z,87.8
2018-09-23T04:56:45.149Z,88.39
2018-09-23T04:57:45.194Z,88.43
2018-09-23T04:58:45.141Z,88.43
2018-09-23T04:59:45.161Z,88.45
2018-09-23T05:00:45.795Z,88.22
2018-09-23T05:01:45.326Z,88.33
2018-09-23T05:02:45.201Z,88.24
2018-09-23T05:03:45.160Z,88.04
2018-09-23T05:04:45.199Z,88.32
2018-09-23T05:05:45.266Z,88.15
2018-09-23T05:06:45.363Z,88.22
2018-09-23T05:07:45.162Z,88.6
2018-09-23T05:08:48.912Z,88.21
2018-09-23T05:09:45.138Z,88.38
2018-09-23T05:10:45.353Z,88.41
2018-09-23T05:11:45.974Z,88.35
2018-09-23T05:12:45.225Z,88.46
2018-09-23T05:13:45.164Z,88.35
2018-09-23T05:14:45.153Z,89.05
2018-09-23T05:15:45.150Z,88.89
2018-09-23T05:16:45.123Z,88.88
2018-09-23T05:17:45.126Z,88.82
2018-09-23T05:18:45.719Z,88.94
2018-09-23T05:19:45.479Z,88.92
2018-09-23T05:20:45.190Z,88.58
2018-09-23T05:21:45.096Z,88.91
2018-09-23T05:22:45.235Z,88.81
2018-09-23T05:23:45.204Z,88.74
2018-09-23T05:24:45.138Z,88.88
2018-09-23T05:25:45.160Z,89
2018-09-23T05:26:45.270Z,89.05
2018-09-23T05:27:45.139Z,89.04
2018-09-23T05:28:45.353Z,89.25
2018-09-23T05:29:45.077Z,89.29
2018-09-23T05:30:45.080Z,89.04
2018-09-23T05:31:45.259Z,88.97
2018-09-23T05:32:45.165Z,88.63
2018-09-23T05:33:45.089Z,88.86
2018-09-23T05:34:45.331Z,88.76
2018-09-23T05:35:45.234Z,88.84
2018-09-23T05:36:45.176Z,88.65
2018-09-23T05:37:45.099Z,89.07
2018-09-23T05:38:45.109Z,89.14
2018-09-23T05:39:45.148Z,88.84
2018-09-23T05:40:49.356Z,89.06
2018-09-23T05:41:45.112Z,88.48
2018-09-23T05:42:45.139Z,88.69
2018-09-23T05:43:45.113Z,88.62
2018-09-23T05:44:45.237Z,88.67
2018-09-23T05:45:45.159Z,88.89
2018-09-23T05:46:45.187Z,88.65
2018-09-23T05:47:45.108Z,88.87
2018-09-23T05:48:45.189Z,88.33
2018-09-23T05:49:45.091Z,88.7
2018-09-23T05:50:45.050Z,88.52
2018-09-23T05:51:45.677Z,88.43
2018-09-23T05:52:45.204Z,88.38
2018-09-23T05:53:45.118Z,88.24
2018-09-23T05:54:45.103Z,88.37
2018-09-23T05:55:45.262Z,88.94
2018-09-23T05:56:45.114Z,88.9
2018-09-23T05:57:45.143Z,88.36
2018-09-23T05:58:45.168Z,88.22
2018-09-23T05:59:45.051Z,88.43
2018-09-23T06:00:45.084Z,89.14
2018-09-23T06:01:45.338Z,89.08
2018-09-23T06:02:45.112Z,88.93
2018-09-23T06:03:45.131Z,88.27
2018-09-23T06:04:45.031Z,88.84
2018-09-23T06:05:45.135Z,89.95
2018-09-23T06:06:45.045Z,89.23
2018-09-23T06:07:45.155Z,89.3
2018-09-23T06:08:45.280Z,89.28
2018-09-23T06:09:45.104Z,88.66
2018-09-23T06:10:45.093Z,88.34
2018-09-23T06:11:45.033Z,88.27
2018-09-23T06:12:45.116Z,89.15
2018-09-23T06:13:45.029Z,89.17
2018-09-23T06:14:45.057Z,88.61
2018-09-23T06:15:45.097Z,89.58
2018-09-23T06:16:45.038Z,90.34
2018-09-23T06:17:45.065Z,89.25
2018-09-23T06:18:45.049Z,89.76
2018-09-23T06:19:45.071Z,89.98
2018-09-23T06:20:45.122Z,89.25
2018-09-23T06:21:45.043Z,88.94
2018-09-23T06:22:45.048Z,88.45
2018-09-23T06:23:45.182Z,88.9
2018-09-23T06:24:45.047Z,88.81
2018-09-23T06:25:45.135Z,88.29
2018-09-23T06:26:45.198Z,88.4
2018-09-23T06:27:45.046Z,88.55
2018-09-23T06:28:45.121Z,88.89
2018-09-23T06:29:45.022Z,89.96
2018-09-23T06:30:45.059Z,89.18
2018-09-23T06:31:45.050Z,90.29
2018-09-23T06:32:45.113Z,90.43
2018-09-23T06:33:45.138Z,89.39
2018-09-23T06:34:45.271Z,90.1
2018-09-23T06:35:45.307Z,89.41
2018-09-23T06:36:45.154Z,90.98
2018-09-23T06:37:45.097Z,90.23
2018-09-23T06:38:45.671Z,89.96
2018-09-23T06:39:44.982Z,91.16
2018-09-23T06:40:45.439Z,90.95
2018-09-23T06:41:45.094Z,90.45
2018-09-23T06:42:45.006Z,90.58
2018-09-23T06:43:47.254Z,90.77
2018-09-23T06:44:45.092Z,91.26
2018-09-23T06:45:45.790Z,90.95
2018-09-23T06:46:44.989Z,91.01
2018-09-23T06:47:45.177Z,90.88
2018-09-23T06:48:45.133Z,90.19
2018-09-23T06:49:45.026Z,90.81
2018-09-23T06:50:44.997Z,90.38
2018-09-23T06:51:45.117Z,91.44
2018-09-23T06:52:45.080Z,90.59
2018-09-23T06:53:45.158Z,90.93
2018-09-23T06:54:45.105Z,90.23
2018-09-23T06:55:45.745Z,91.56
2018-09-23T06:56:45.208Z,91.64
2018-09-23T06:57:44.975Z,91.24
2018-09-23T06:58:45.028Z,90.62
2018-09-23T06:59:44.979Z,90.6
2018-09-23T07:00:45.145Z,91.21
2018-09-23T07:01:45.122Z,90.83
2018-09-23T07:02:45.119Z,90.39
2018-09-23T07:03:45.121Z,91.29
2018-09-23T07:04:45.540Z,91.16
2018-09-23T07:05:45.116Z,91.21
2018-09-23T07:06:44.977Z,90.64
2018-09-23T07:07:45.160Z,91.15
2018-09-23T07:08:45.255Z,90.75
2018-09-23T07:09:45.264Z,91.2
2018-09-23T07:10:45.187Z,90.92
2018-09-23T07:11:44.979Z,90.97
2018-09-23T07:12:45.194Z,90.78
2018-09-23T07:13:45.121Z,90.71
2018-09-23T07:14:45.408Z,90.7
2018-09-23T07:15:45.003Z,91.07
2018-09-23T07:16:45.118Z,91.14
2018-09-23T07:17:45.165Z,90.76
2018-09-23T07:18:44.976Z,91.54
2018-09-23T07:19:45.137Z,90.85
2018-09-23T07:20:45.064Z,90.52
2018-09-23T07:21:44.999Z,91.14
2018-09-23T07:22:44.988Z,90.56
2018-09-23T07:23:45.475Z,90.24
2018-09-23T07:24:44.985Z,90.46
2018-09-23T07:25:45.089Z,90.62
2018-09-23T07:26:44.934Z,89.97
2018-09-23T07:27:45.317Z,90.1
2018-09-23T07:28:45.023Z,89.7
2018-09-23T07:29:44.958Z,90.3
2018-09-23T07:30:45.047Z,90.14
2018-09-23T07:31:45.040Z,90.1
2018-09-23T07:32:44.991Z,90.39
2018-09-23T07:33:45.034Z,90.53
2018-09-23T07:34:44.932Z,89.81
2018-09-23T07:35:45.044Z,90.03
2018-09-23T07:36:45.424Z,90.22
2018-09-23T07:37:44.999Z,90.36
2018-09-23T07:38:45.072Z,90
2018-09-23T07:39:45.164Z,90.66
2018-09-23T07:40:44.929Z,90.16
2018-09-23T07:41:44.906Z,90.28
2018-09-23T07:42:45.053Z,90.62
2018-09-23T07:43:44.992Z,90.52
2018-09-23T07:44:45.133Z,89.97
2018-09-23T07:45:45.016Z,89.7
2018-09-23T07:46:45.048Z,89.75
2018-09-23T07:47:45.198Z,89.98
2018-09-23T07:48:45.031Z,89.93
2018-09-23T07:49:45.138Z,90.46
2018-09-23T07:50:45.393Z,90.39
2018-09-23T07:51:45.074Z,90.45
2018-09-23T07:52:45.019Z,90.7
2018-09-23T07:53:45.064Z,91.32
2018-09-23T07:54:45.434Z,91.11
2018-09-23T07:55:45.327Z,91.22
2018-09-23T07:56:45.089Z,90.72
2018-09-23T07:57:45.139Z,90.91
2018-09-23T07:58:46.122Z,90.39
2018-09-23T07:59:44.971Z,89.6
2018-09-23T08:00:45.044Z,90.17
2018-09-23T08:01:46.105Z,90.08
2018-09-23T08:02:45.089Z,89.62
2018-09-23T08:03:45.549Z,89.34
2018-09-23T08:04:44.925Z,89.12
2018-09-23T08:05:44.902Z,88.36
2018-09-23T08:06:46.105Z,88.66
2018-09-23T08:07:45.066Z,88.67
2018-09-23T08:08:45.027Z,88.97
2018-09-23T08:09:44.971Z,88.92
2018-09-23T08:10:45.139Z,88.67
2018-09-23T08:11:45.568Z,88.75
2018-09-23T08:12:46.186Z,88.76
2018-09-23T08:13:46.085Z,87.98
2018-09-23T08:14:48.036Z,88.41
2018-09-23T08:15:45.001Z,88.59
2018-09-23T08:16:45.066Z,88.35
2018-09-23T08:17:44.885Z,88.4
2018-09-23T08:18:45.243Z,88.12
2018-09-23T08:19:46.447Z,88.77
2018-09-23T08:20:45.121Z,88.68
2018-09-23T08:21:45.036Z,88.24
2018-09-23T08:22:44.996Z,88.82
2018-09-23T08:23:45.145Z,88.27
2018-09-23T08:24:44.888Z,88.35
2018-09-23T08:25:45.465Z,88.22
2018-09-23T08:26:44.895Z,88.1
2018-09-23T08:27:44.941Z,88.25
2018-09-23T08:28:44.915Z,88.18
2018-09-23T08:29:44.835Z,88.1
2018-09-23T08:30:44.859Z,87.18
2018-09-23T08:31:45.507Z,88.07
2018-09-23T08:32:45.293Z,88.01
2018-09-23T08:33:51.910Z,87.29
2018-09-23T08:34:45.126Z,86.63
2018-09-23T08:35:44.888Z,86.86
2018-09-23T08:36:45.038Z,87.45
2018-09-23T08:37:45.043Z,86.61
2018-09-23T08:38:44.850Z,86.59
2018-09-23T08:39:45.335Z,87.02
2018-09-23T08:40:44.903Z,86.4
2018-09-23T08:41:44.883Z,86.44
2018-09-23T08:42:45.019Z,86.53
2018-09-23T08:43:45.156Z,86.22
2018-09-23T08:44:44.940Z,85.83
2018-09-23T08:45:45.007Z,85.37
2018-09-23T08:46:44.826Z,85.5
2018-09-23T08:47:44.941Z,85.06
2018-09-23T08:48:44.785Z,86.17
2018-09-23T08:49:44.837Z,85.73
2018-09-23T08:50:44.864Z,85.98
2018-09-23T08:51:45.083Z,85.59
2018-09-23T08:52:44.822Z,85.29
2018-09-23T08:53:44.850Z,85.35
2018-09-23T08:54:44.853Z,85.17
2018-09-23T08:55:44.829Z,85.36
2018-09-23T08:56:44.898Z,85.61
2018-09-23T08:57:45.203Z,85.62
2018-09-23T08:58:44.981Z,85.81
2018-09-23T08:59:44.819Z,85.89
2018-09-23T09:00:44.864Z,86.06
2018-09-23T09:01:44.823Z,85.88
2018-09-23T09:02:44.857Z,85.86
2018-09-23T09:03:45.309Z,85.83
2018-09-23T09:04:44.849Z,85.98
2018-09-23T09:05:44.868Z,86.08
2018-09-23T09:06:44.870Z,86.17
2018-09-23T09:07:44.848Z,86
2018-09-23T09:08:44.873Z,86.3
2018-09-23T09:09:44.823Z,86.38
2018-09-23T09:10:45.099Z,86.49
2018-09-23T09:11:45.258Z,86.59
2018-09-23T09:12:44.811Z,86.62
2018-09-23T09:13:44.840Z,86.84
2018-09-23T09:14:44.818Z,87.15
2018-09-23T09:15:50.348Z,87.17
2018-09-23T09:16:45.134Z,87.08
2018-09-23T09:17:45.010Z,86.77
2018-09-23T09:18:46.087Z,87.23
2018-09-23T09:19:44.803Z,87.4
2018-09-23T09:20:46.214Z,87.05
2018-09-23T09:21:45.080Z,87.4
2018-09-23T09:22:44.821Z,87.54
2018-09-23T09:23:45.051Z,87.57
2018-09-23T09:24:44.840Z,87.87
2018-09-23T09:25:44.840Z,87.79
2018-09-23T09:26:45.655Z,87.61
2018-09-23T09:27:45.054Z,87.71
2018-09-23T09:28:44.860Z,87.75
2018-09-23T09:29:45.172Z,87.71
2018-09-23T09:30:44.959Z,87.49
2018-09-23T09:31:44.972Z,87.24
2018-09-23T09:32:44.975Z,87.38
2018-09-23T09:33:45.193Z,87.46
2018-09-23T09:34:44.938Z,87.05
2018-09-23T09:35:45.124Z,87.13
2018-09-23T09:36:45.096Z,87.24
2018-09-23T09:37:44.806Z,87.15
2018-09-23T09:38:44.968Z,86.97
2018-09-23T09:39:44.931Z,86.85
2018-09-23T09:40:45.038Z,86.96
2018-09-23T09:41:44.937Z,86.82
2018-09-23T09:42:44.861Z,86.54
2018-09-23T09:43:45.663Z,86.45
2018-09-23T09:44:45.271Z,86.64
2018-09-23T09:45:45.166Z,86.69
2018-09-23T09:46:44.975Z,86.83
2018-09-23T09:47:44.966Z,86.56
2018-09-23T09:48:45.172Z,86.75
2018-09-23T09:49:45.007Z,86.58
2018-09-23T09:50:45.512Z,86.05
2018-09-23T09:51:45.306Z,86.62
2018-09-23T09:52:45.024Z,86.6
2018-09-23T09:53:44.806Z,86.68
2018-09-23T09:54:44.912Z,86.55
2018-09-23T09:55:45.140Z,86.35
2018-09-23T09:56:44.928Z,86.46
2018-09-23T09:57:45.049Z,86.59
2018-09-23T09:58:45.454Z,86.44
2018-09-23T09:59:44.989Z,86.12
2018-09-23T10:00:45.235Z,86.54
2018-09-23T10:01:44.817Z,86.25
2018-09-23T10:02:44.886Z,86.44
2018-09-23T10:03:45.011Z,86.31
2018-09-23T10:04:45.099Z,86.21
2018-09-23T10:05:44.918Z,86.64
2018-09-23T10:06:44.899Z,86.48
2018-09-23T10:07:44.787Z,86.17
2018-09-23T10:08:45.042Z,86.42
2018-09-23T10:09:45.531Z,86.25
2018-09-23T10:10:44.805Z,86.33
2018-09-23T10:11:45.029Z,86.34
2018-09-23T10:12:44.826Z,86.22
2018-09-23T10:13:44.765Z,86.16
2018-09-23T10:14:44.951Z,86.32
2018-09-23T10:15:44.756Z,86.29
2018-09-23T10:16:44.708Z,85.74
2018-09-23T10:17:44.994Z,86.3
2018-09-23T10:18:44.699Z,86.18
2018-09-23T10:19:44.974Z,85.74
2018-09-23T10:20:45.011Z,85.77
2018-09-23T10:21:44.762Z,85.62
2018-09-23T10:22:45.821Z,85.62
2018-09-23T10:23:46.651Z,85.47
2018-09-23T10:24:44.727Z,85.37
2018-09-23T10:25:44.790Z,85.44
2018-09-23T10:26:44.716Z,85.42
2018-09-23T10:27:44.771Z,85.11
2018-09-23T10:28:44.950Z,84.82
2018-09-23T10:29:45.320Z,84.87
2018-09-23T10:30:44.696Z,85.03
2018-09-23T10:31:45.189Z,84.81
2018-09-23T10:32:44.896Z,85
2018-09-23T10:33:44.765Z,85.1
2018-09-23T10:34:44.854Z,84.56
2018-09-23T10:35:45.932Z,84.49
2018-09-23T10:36:44.890Z,84.4
2018-09-23T10:37:44.844Z,84.19
2018-09-23T10:38:44.830Z,84.09
2018-09-23T10:39:44.728Z,83.79
2018-09-23T10:40:44.783Z,84.18
2018-09-23T10:41:45.863Z,84.17
2018-09-23T10:42:44.855Z,84.13
2018-09-23T10:43:44.711Z,84.4
2018-09-23T10:44:44.739Z,83.62
2018-09-23T10:45:45.277Z,83.2
2018-09-23T10:46:44.786Z,82.79
2018-09-23T10:47:44.851Z,82.87
2018-09-23T10:48:44.785Z,83.2
2018-09-23T10:49:44.824Z,83.03
2018-09-23T10:50:44.900Z,82.55
2018-09-23T10:51:44.787Z,82.69
2018-09-23T10:52:44.825Z,82.22
2018-09-23T10:53:44.651Z,82.49
2018-09-23T10:54:44.741Z,82.34
2018-09-23T10:55:45.091Z,82.02
2018-09-23T10:56:44.711Z,81.69
2018-09-23T10:57:44.770Z,82.01
2018-09-23T10:58:44.765Z,81.58
2018-09-23T10:59:45.890Z,81.14
2018-09-23T11:00:44.735Z,81.31
2018-09-23T11:01:45.185Z,81.16
2018-09-23T11:02:48.290Z,81.11
2018-09-23T11:03:44.968Z,81.05
2018-09-23T11:04:44.723Z,80.58
2018-09-23T11:05:44.692Z,80.26
2018-09-23T11:06:44.825Z,80.68
2018-09-23T11:07:44.668Z,80.75
2018-09-23T11:08:44.820Z,80.76
2018-09-23T11:09:45.174Z,80.66
2018-09-23T11:10:44.663Z,80.34
2018-09-23T11:11:45.280Z,80.51
2018-09-23T11:12:44.688Z,80.6
2018-09-23T11:13:44.681Z,80.6
2018-09-23T11:14:44.802Z,80.35
2018-09-23T11:15:44.795Z,80.69
2018-09-23T11:16:44.983Z,80.46
2018-09-23T11:17:44.676Z,79.83
2018-09-23T11:18:44.818Z,79.97
2018-09-23T11:19:44.720Z,80.07
2018-09-23T11:20:44.667Z,80.07
2018-09-23T11:21:44.946Z,79.66
2018-09-23T11:22:44.827Z,79.78
2018-09-23T11:23:44.679Z,80.16
2018-09-23T11:24:45.203Z,79.93
2018-09-23T11:25:44.663Z,79.27
2018-09-23T11:26:44.675Z,78.96
2018-09-23T11:27:44.875Z,78.99
2018-09-23T11:28:44.690Z,78.4
2018-09-23T11:29:44.696Z,77.81
2018-09-23T11:30:45.119Z,78.4
2018-09-23T11:31:44.704Z,78.74
2018-09-23T11:32:44.643Z,78.78
2018-09-23T11:33:44.827Z,78.61
2018-09-23T11:34:44.999Z,78.63
2018-09-23T11:35:44.631Z,78.13
2018-09-23T11:36:44.810Z,77.75
2018-09-23T11:37:44.649Z,77.78
2018-09-23T11:38:44.651Z,77.51
2018-09-23T11:39:46.186Z,77.39
2018-09-23T11:40:44.631Z,77.37
2018-09-23T11:41:44.625Z,77.19
2018-09-23T11:42:44.802Z,77.33
2018-09-23T11:43:44.724Z,77.29
2018-09-23T11:44:44.906Z,76.87
2018-09-23T11:45:44.697Z,77.07
2018-09-23T11:46:44.645Z,77.11
2018-09-23T11:47:44.807Z,76.91
2018-09-23T11:48:44.719Z,76.89
2018-09-23T11:49:44.924Z,76.72
2018-09-23T11:50:44.812Z,76.85
2018-09-23T11:51:44.816Z,76.81
2018-09-23T11:52:44.646Z,77.3
2018-09-23T11:53:44.729Z,77.29
2018-09-23T11:54:44.785Z,77.17
2018-09-23T11:55:44.749Z,76.91
2018-09-23T11:56:45.016Z,76.53
2018-09-23T11:57:44.709Z,77.04
2018-09-23T11:58:45.014Z,77.07
2018-09-23T11:59:44.911Z,76.82
2018-09-23T12:00:44.838Z,76.58
2018-09-23T12:01:44.728Z,76.57
2018-09-23T12:02:44.928Z,76.57
2018-09-23T12:03:44.650Z,76.43
2018-09-23T12:04:44.619Z,76.19
2018-09-23T12:05:44.802Z,76
2018-09-23T12:06:44.824Z,75.98
2018-09-23T12:07:44.791Z,75.31
2018-09-23T12:08:44.697Z,75.32
2018-09-23T12:09:44.774Z,75.35
2018-09-23T12:10:44.694Z,74.88
2018-09-23T12:11:45.269Z,74.42
2018-09-23T12:12:44.714Z,74.38
2018-09-23T12:13:44.745Z,74.67
2018-09-23T12:14:45.006Z,74.3
2018-09-23T12:15:45.389Z,74.28
2018-09-23T12:16:44.606Z,73.56
2018-09-23T12:17:44.648Z,73.21
2018-09-23T12:18:44.747Z,73.21
2018-09-23T12:19:44.768Z,73.02
2018-09-23T12:20:45.338Z,73.19
2018-09-23T12:21:44.557Z,73.1
2018-09-23T12:22:44.776Z,72.58
2018-09-23T12:23:44.652Z,71.91
2018-09-23T12:24:44.590Z,71.75
2018-09-23T12:25:45.311Z,71.43
2018-09-23T12:26:44.702Z,70.99
2018-09-23T12:27:44.965Z,70.4
2018-09-23T12:28:44.589Z,70.27
2018-09-23T12:29:45.016Z,70.28
2018-09-23T12:30:44.592Z,70.31
2018-09-23T12:31:44.573Z,69.52
2018-09-23T12:32:44.594Z,68.93
2018-09-23T12:33:44.600Z,69.45
2018-09-23T12:34:44.686Z,69.48
2018-09-23T12:35:44.926Z,69.48
2018-09-23T12:36:44.633Z,68.63
2018-09-23T12:37:44.654Z,68.53
2018-09-23T12:38:44.766Z,67.56
2018-09-23T12:39:45.250Z,68.15
2018-09-23T12:40:44.611Z,68.55
2018-09-23T12:41:44.772Z,68.47
2018-09-23T12:42:44.561Z,68.17
2018-09-23T12:43:44.599Z,68.2
2018-09-23T12:44:44.630Z,68.52
2018-09-23T12:45:44.601Z,68
2018-09-23T12:46:44.577Z,68.05
2018-09-23T12:47:44.613Z,68.72
2018-09-23T12:48:44.899Z,68.86
2018-09-23T12:49:44.689Z,67.78
2018-09-23T12:50:45.235Z,67.62
2018-09-23T12:51:44.582Z,68.18
2018-09-23T12:52:44.560Z,68.2
2018-09-23T12:53:44.551Z,68
2018-09-23T12:54:44.547Z,67.84
2018-09-23T12:55:44.676Z,68.56
2018-09-23T12:56:44.571Z,68.73